Time;durP1;ratioP1;P1;durP2;ratioP2;P2;SDS_P1;SDS_P2;PMS_P1;PMS_P2;Temp;Humidity;BMP_temperature;BMP_pressure;BME280_temperature;BME280_humidity;BME280_pressure;Samples;Min_cycle;Max_cycle;Signal;HPM_P1;HPM_P2
2024/03/15 00:02:21;;;;;;;;;;;;;;;;;;4967967;28;19930;-72
2024/03/15 00:04:47;;;;;;;;;;;;;;;;;;4968355;28;19937;-71
2024/03/15 00:07:14;;;;;;;;;;;;;;;;;;4967392;28;20000;-71
2024/03/15 00:09:41;;;;;;;;;;;;;;;;;;4969838;28;20021;-71
2024/03/15 00:12:08;;;;;;;;;;;;;;;;;;4967779;28;19938;-71
2024/03/15 00:14:36;;;;;;;;;;;;;;;;;;4965993;28;19930;-71
2024/03/15 00:25:18;;;;;;;;;;;;;;;;;;4965446;28;19944;-72
2024/03/15 00:27:46;;;;;;;;;;;;;;;;;;4967635;28;19936;-72
2024/03/15 00:30:13;;;;;;;;;;;;;;;;;;4960830;28;19945;-72
2024/03/15 00:32:40;;;;;;;;;;;;;;;;;;4967866;28;19961;-72
2024/03/15 00:35:07;;;;;;;;;;;;;;;;;;4962403;28;19934;-73
2024/03/15 00:37:35;;;;;;;;;;;;;;;;;;4983294;28;19932;-72
2024/03/15 00:40:02;;;;;;;;;;;;;;;;;;4958331;28;19941;-72
2024/03/15 00:42:30;;;;;;;;;;;;;;;;;;4962846;28;19978;-72
2024/03/15 00:44:57;;;;;;;;;;;;;;;;;;4960852;28;19941;-73
2024/03/15 00:47:24;;;;;;;;;;;;;;;;;;4958264;28;19937;-74
2024/03/15 00:49:51;;;;;;;;;;;;;;;;;;4970405;28;19930;-73
2024/03/15 00:52:19;;;;;;;;;;;;;;;;;;4965872;28;19930;-71
2024/03/15 00:54:46;;;;;;;;;;;;;;;;;;4965204;28;19930;-73
2024/03/15 00:57:13;;;;;;;;;;;;;;;;;;4966475;28;20012;-73
2024/03/15 00:59:40;;;;;;;;;;;;;;;;;;4962311;28;20011;-73
2024/03/15 01:02:07;;;;;;;;;;;;;;;;;;4965728;28;20007;-73
2024/03/15 01:04:35;;;;;;;;;;;;;;;;;;4957991;28;19930;-73
2024/03/15 01:07:03;;;;;;;;;;;;;;;;;;4966980;28;19981;-71
2024/03/15 01:09:30;;;;;;;;;;;;;;;;;;4953823;28;19930;-72
2024/03/15 01:11:57;;;;;;;;;;;;;;;;;;4949487;28;20088;-71
2024/03/15 01:14:24;;;;;;;;;;;;;;;;;;4959069;28;19936;-71
2024/03/15 01:16:51;;;;;;;;;;;;;;;;;;4948229;28;20432;-71
2024/03/15 01:19:19;;;;;;;;;;;;;;;;;;4963901;28;19977;-71
2024/03/15 01:21:46;;;;;;;;;;;;;;;;;;4968334;28;20007;-71
2024/03/15 01:24:13;;;;;;;;;;;;;;;;;;4968729;28;19930;-71
2024/03/15 01:26:41;;;;;;;;;;;;;;;;;;4969932;28;20000;-73
2024/03/15 01:29:09;;;;;;;;;;;;;;;;;;4970566;28;20365;-73
2024/03/15 01:31:36;;;;;;;;;;;;;;;;;;4970107;28;20412;-73
2024/03/15 01:34:03;;;;;;;;;;;;;;;;;;4970020;28;19930;-70
2024/03/15 01:36:30;;;;;;;;;;;;;;;;;;4962922;28;20347;-72
2024/03/15 01:38:57;;;;;;;;;;;;;;;;;;4957338;28;19934;-71
2024/03/15 01:41:24;;;;;;;;;;;;;;;;;;4970625;28;20398;-72
2024/03/15 01:43:51;;;;;;;;;;;;;;;;;;4967411;28;19934;-72
2024/03/15 01:46:18;;;;;;;;;;;;;;;;;;4956935;28;19935;-71
2024/03/15 01:48:45;;;;;;;;;;;;;;;;;;4969250;28;19988;-70
2024/03/15 01:51:12;;;;;;;;;;;;;;;;;;4970228;28;19930;-72
2024/03/15 01:53:39;;;;;;;;;;;;;;;;;;4968625;28;20343;-72
2024/03/15 01:56:06;;;;;;;;;;;;;;;;;;4953500;28;19930;-72
2024/03/15 01:58:34;;;;;;;;;;;;;;;;;;4967493;28;19929;-72
2024/03/15 02:01:02;;;;;;;;;;;;;;;;;;4965896;28;19930;-72
2024/03/15 02:03:30;;;;;;;;;;;;;;;;;;4970044;28;20301;-72
2024/03/15 02:05:57;;;;;;;;;;;;;;;;;;4966333;28;20409;-72
2024/03/15 02:08:24;;;;;;;;;;;;;;;;;;4962392;28;19978;-72
2024/03/15 02:10:51;;;;;;;;;;;;;;;;;;4955689;28;19952;-72
2024/03/15 02:13:18;;;;;;;;;;;;;;;;;;4952518;28;20320;-72
2024/03/15 02:15:46;;;;;;;;;;;;;;;;;;4965435;28;20397;-72
2024/03/15 02:18:13;;;;;;;;;;;;;;;;;;4966574;28;19931;-72
2024/03/15 02:20:40;;;;;;;;;;;;;;;;;;4969671;28;19976;-73
2024/03/15 02:23:08;;;;;;;;;;;;;;;;;;4953790;28;19980;-72
2024/03/15 02:25:36;;;;;;;;;;;;;;;;;;4957180;28;20343;-72
2024/03/15 02:28:06;;;;;;;;;;;;;;;;;;4966020;28;19930;-72
2024/03/15 02:30:33;;;;;;;;;;;;;;;;;;4963436;28;19936;-72
2024/03/15 02:33:00;;;;;;;;;;;;;;;;;;4968046;28;20018;-72
2024/03/15 02:35:28;;;;;;;;;;;;;;;;;;4988059;28;19972;-72
2024/03/15 02:37:55;;;;;;;;;;;;;;;;;;4969014;28;19953;-71
2024/03/15 02:40:23;;;;;;;;;;;;;;;;;;4961806;28;20346;-71
2024/03/15 02:42:50;;;;;;;;;;;;;;;;;;4970033;28;19936;-71
2024/03/15 02:45:18;;;;;;;;;;;;;;;;;;4957717;28;19937;-71
2024/03/15 02:47:46;;;;;;;;;;;;;;;;;;4969601;28;19934;-71
2024/03/15 02:50:13;;;;;;;;;;;;;;;;;;4968658;28;19965;-72
2024/03/15 02:52:40;;;;;;;;;;;;;;;;;;4969590;28;20022;-71
2024/03/15 02:55:07;;;;;;;;;;;;;;;;;;4967060;28;20493;-71
2024/03/15 02:57:34;;;;;;;;;;;;;;;;;;4988098;28;20380;-72
2024/03/15 03:00:02;;;;;;;;;;;;;;;;;;4966445;28;19934;-72
2024/03/15 03:02:29;;;;;;;;;;;;;;;;;;4958346;28;19930;-71
2024/03/15 03:04:56;;;;;;;;;;;;;;;;;;4969491;28;19983;-72
2024/03/15 03:07:24;;;;;;;;;;;;;;;;;;4953919;28;19934;-71
2024/03/15 03:09:51;;;;;;;;;;;;;;;;;;4969203;28;19969;-72
2024/03/15 03:12:17;;;;;;;;;;;;;;;;;;4954958;28;19953;-71
2024/03/15 03:14:45;;;;;;;;;;;;;;;;;;4956670;28;19937;-71
2024/03/15 03:17:14;;;;;;;;;;;;;;;;;;4968931;28;19934;-72
2024/03/15 03:19:41;;;;;;;;;;;;;;;;;;4960273;28;19960;-71
2024/03/15 03:22:08;;;;;;;;;;;;;;;;;;4962390;28;19983;-72
2024/03/15 03:24:35;;;;;;;;;;;;;;;;;;4962158;28;20507;-71
2024/03/15 03:27:02;;;;;;;;;;;;;;;;;;4965303;28;20377;-72
2024/03/15 03:29:29;;;;;;;;;;;;;;;;;;4962183;28;20397;-72
2024/03/15 03:31:56;;;;;;;;;;;;;;;;;;4965503;28;19987;-72
2024/03/15 03:34:23;;;;;;;;;;;;;;;;;;4968380;28;19931;-72
2024/03/15 03:36:50;;;;;;;;;;;;;;;;;;4958977;28;19930;-71
2024/03/15 03:39:20;;;;;;;;;;;;;;;;;;5018387;28;19932;-72
2024/03/15 03:41:48;;;;;;;;;;;;;;;;;;4987132;28;20062;-72
2024/03/15 03:44:16;;;;;;;;;;;;;;;;;;4961010;28;20012;-72
2024/03/15 03:46:44;;;;;;;;;;;;;;;;;;4967891;28;19983;-72
2024/03/15 03:49:11;;;;;;;;;;;;;;;;;;5014702;28;20018;-73
2024/03/15 03:51:38;;;;;;;;;;;;;;;;;;4968392;28;19977;-72
2024/03/15 03:54:05;;;;;;;;;;;;;;;;;;4962289;28;19937;-73
2024/03/15 03:56:32;;;;;;;;;;;;;;;;;;4963160;28;19981;-73
2024/03/15 03:58:59;;;;;;;;;;;;;;;;;;4967477;28;19930;-73
2024/03/15 04:01:26;;;;;;;;;;;;;;;;;;4958699;28;20466;-73
2024/03/15 04:03:53;;;;;;;;;;;;;;;;;;4957847;28;19991;-73
2024/03/15 04:06:21;;;;;;;;;;;;;;;;;;4967616;28;19969;-73
2024/03/15 04:08:48;;;;;;;;;;;;;;;;;;4967547;28;20395;-73
2024/03/15 04:11:15;;;;;;;;;;;;;;;;;;4962088;28;20322;-73
2024/03/15 04:13:42;;;;;;;;;;;;;;;;;;4967535;28;19985;-71
2024/03/15 04:16:10;;;;;;;;;;;;;;;;;;4964380;28;19933;-72
2024/03/15 04:18:37;;;;;;;;;;;;;;;;;;4958721;28;20308;-71
2024/03/15 04:21:04;;;;;;;;;;;;;;;;;;4967534;28;20442;-71
2024/03/15 04:23:33;;;;;;;;;;;;;;;;;;4962824;28;20128;-72
2024/03/15 04:26:00;;;;;;;;;;;;;;;;;;4968877;28;20468;-72
2024/03/15 04:28:28;;;;;;;;;;;;;;;;;;4964380;28;20613;-72
2024/03/15 04:30:56;;;;;;;;;;;;;;;;;;4968380;28;19930;-72
2024/03/15 04:33:23;;;;;;;;;;;;;;;;;;4967740;28;20401;-72
2024/03/15 04:35:51;;;;;;;;;;;;;;;;;;5031066;28;19997;-72
2024/03/15 04:38:18;;;;;;;;;;;;;;;;;;5001479;28;19934;-72
2024/03/15 04:40:46;;;;;;;;;;;;;;;;;;4970975;28;20302;-72
2024/03/15 04:43:13;;;;;;;;;;;;;;;;;;4959350;28;19930;-72
2024/03/15 04:45:40;;;;;;;;;;;;;;;;;;4972434;28;19932;-73
2024/03/15 04:48:07;;;;;;;;;;;;;;;;;;4980829;28;20041;-73
2024/03/15 04:50:35;;;;;;;;;;;;;;;;;;4967427;28;20003;-72
2024/03/15 04:53:02;;;;;;;;;;;;;;;;;;4960750;28;19935;-72
2024/03/15 04:55:29;;;;;;;;;;;;;;;;;;4951066;28;19931;-72
2024/03/15 04:57:56;;;;;;;;;;;;;;;;;;4964503;28;20012;-74
2024/03/15 05:00:23;;;;;;;;;;;;;;;;;;4967127;28;19981;-73
2024/03/15 05:02:51;;;;;;;;;;;;;;;;;;4955712;28;19981;-73
2024/03/15 05:05:20;;;;;;;;;;;;;;;;;;4968717;28;19976;-73
2024/03/15 05:07:48;;;;;;;;;;;;;;;;;;4967347;28;19934;-73
2024/03/15 05:10:15;;;;;;;;;;;;;;;;;;4967375;28;20466;-71
2024/03/15 05:12:42;;;;;;;;;;;;;;;;;;4967396;28;19937;-73
2024/03/15 05:15:10;;;;;;;;;;;;;;;;;;4966888;28;19937;-72
2024/03/15 05:17:38;;;;;;;;;;;;;;;;;;4967922;28;19930;-72
2024/03/15 05:20:08;;;;;;;;;;;;;;;;;;4961847;28;20028;-72
2024/03/15 05:22:35;;;;;;;;;;;;;;;;;;4966754;28;19937;-72
2024/03/15 05:25:02;;;;;;;;;;;;;;;;;;4966276;28;19999;-71
2024/03/15 05:27:29;;;;;;;;;;;;;;;;;;4966470;28;19934;-72
2024/03/15 05:29:57;;;;;;;;;;;;;;;;;;4967115;28;19930;-72
2024/03/15 05:32:24;;;;;;;;;;;;;;;;;;4966726;28;19973;-71
2024/03/15 05:34:51;;;;;;;;;;;;;;;;;;4964124;28;19938;-72
2024/03/15 05:37:18;;;;;;;;;;;;;;;;;;4949665;28;20023;-71
2024/03/15 05:39:46;;;;;;;;;;;;;;;;;;4948973;28;19997;-72
2024/03/15 05:42:13;;;;;;;;;;;;;;;;;;4957036;28;19973;-72
2024/03/15 05:44:40;;;;;;;;;;;;;;;;;;4953203;28;19938;-71
2024/03/15 05:47:07;;;;;;;;;;;;;;;;;;4966601;28;19937;-71
2024/03/15 05:49:35;;;;;;;;;;;;;;;;;;4966322;28;19934;-71
2024/03/15 05:52:02;;;;;;;;;;;;;;;;;;4964669;28;20338;-70
2024/03/15 05:54:30;;;;;;;;;;;;;;;;;;5025614;28;19982;-72
2024/03/15 05:56:57;;;;;;;;;;;;;;;;;;4968630;28;20340;-71
2024/03/15 05:59:24;;;;;;;;;;;;;;;;;;4965554;28;20004;-71
2024/03/15 06:01:51;;;;;;;;;;;;;;;;;;4962326;28;19930;-71
2024/03/15 06:04:18;;;;;;;;;;;;;;;;;;4961304;28;19934;-71
2024/03/15 06:06:46;;;;;;;;;;;;;;;;;;4960084;28;19948;-71
2024/03/15 06:09:13;;;;;;;;;;;;;;;;;;4964145;28;19931;-72
2024/03/15 06:11:40;;;;;;;;;;;;;;;;;;4957201;28;19941;-72
2024/03/15 06:14:08;;;;;;;;;;;;;;;;;;4963265;28;19930;-71
2024/03/15 06:16:35;;;;;;;;;;;;;;;;;;4970172;28;20377;-71
2024/03/15 06:19:04;;;;;;;;;;;;;;;;;;4969306;28;20024;-72
2024/03/15 06:21:31;;;;;;;;;;;;;;;;;;4972200;28;19929;-74
2024/03/15 06:23:58;;;;;;;;;;;;;;;;;;4967835;28;19980;-74
2024/03/15 06:26:25;;;;;;;;;;;;;;;;;;4962977;28;19934;-74
2024/03/15 06:28:53;;;;;;;;;;;;;;;;;;4950833;28;19994;-74
2024/03/15 06:31:20;;;;;;;;;;;;;;;;;;4958467;28;20364;-74
2024/03/15 06:33:49;;;;;;;;;;;;;;;;;;4969876;28;19934;-73
2024/03/15 06:36:18;;;;;;;;;;;;;;;;;;4968438;28;20009;-73
2024/03/15 06:38:57;;;;;;;;;;;;;;;;;;4958816;28;19936;-73
2024/03/15 06:41:37;;;;;;;;;;;;;;;;;;4959366;28;19937;-73
2024/03/15 06:44:19;;;;;;;;;;;;;;;;;;4961887;28;19934;-73
2024/03/15 06:47:04;;;;;;;;;;;;;;;;;;4968409;28;19962;-73
2024/03/15 06:49:44;;;;;;;;;;;;;;;;;;4966719;28;19930;-74
2024/03/15 06:54:56;;;;;;;;;;;;;;;;;;4966865;28;20354;-74
2024/03/15 06:57:23;;;;;;;;;;;;;;;;;;4962895;28;20359;-74
2024/03/15 06:59:50;;;;;;;;;;;;;;;;;;4958953;28;20356;-73
2024/03/15 07:02:17;;;;;;;;;;;;;;;;;;4960838;28;19977;-73
2024/03/15 07:04:45;;;;;;;;;;;;;;;;;;4971271;28;19945;-73
2024/03/15 07:07:13;;;;;;;;;;;;;;;;;;5016981;28;19934;-75
2024/03/15 07:09:41;;;;;;;;;;;;;;;;;;4967415;28;20021;-75
2024/03/15 07:12:09;;;;;;;;;;;;;;;;;;4964241;28;19937;-75
2024/03/15 07:14:39;;;;;;;;;;;;;;;;;;4967513;28;20025;-76
2024/03/15 07:17:09;;;;;;;;;;;;;;;;;;4965303;28;19937;-75
2024/03/15 07:19:36;;;;;;;;;;;;;;;;;;4964077;28;19930;-74
2024/03/15 07:22:03;;;;;;;;;;;;;;;;;;4965777;28;20443;-73
2024/03/15 07:24:31;;;;;;;;;;;;;;;;;;4958783;28;20357;-73
2024/03/15 07:26:58;;;;;;;;;;;;;;;;;;4960540;28;20319;-74
2024/03/15 07:29:25;;;;;;;;;;;;;;;;;;4963933;28;20367;-73
2024/03/15 07:31:54;;;;;;;;;;;;;;;;;;4965599;28;20316;-74
2024/03/15 07:34:21;;;;;;;;;;;;;;;;;;4966210;28;20392;-73
2024/03/15 07:36:49;;;;;;;;;;;;;;;;;;4962386;28;19930;-73
2024/03/15 07:39:16;;;;;;;;;;;;;;;;;;4964030;28;20385;-73
2024/03/15 07:41:43;;;;;;;;;;;;;;;;;;4964717;28;19930;-74
2024/03/15 07:44:11;;;;;;;;;;;;;;;;;;4961205;28;19938;-73
2024/03/15 07:46:38;;;;;;;;;;;;;;;;;;4963698;28;19944;-73
2024/03/15 07:49:08;;;;;;;;;;;;;;;;;;4966062;28;19953;-74
2024/03/15 07:51:35;;;;;;;;;;;;;;;;;;4964210;28;19930;-74
2024/03/15 07:54:04;;;;;;;;;;;;;;;;;;4966617;28;19934;-74
2024/03/15 07:56:31;;;;;;;;;;;;;;;;;;4965093;28;20128;-73
2024/03/15 07:58:58;;;;;;;;;;;;;;;;;;4965811;28;19930;-73
2024/03/15 08:01:25;;;;;;;;;;;;;;;;;;4964889;28;19984;-74
2024/03/15 08:03:54;;;;;;;;;;;;;;;;;;4957783;28;20025;-74
2024/03/15 08:06:21;;;;;;;;;;;;;;;;;;4964088;28;19928;-74
2024/03/15 08:08:48;;;;;;;;;;;;;;;;;;4956576;28;19958;-73
2024/03/15 08:11:15;;;;;;;;;;;;;;;;;;4963289;28;19938;-74
2024/03/15 08:13:42;;;;;;;;;;;;;;;;;;4972534;28;20373;-74
2024/03/15 08:16:33;;;;;;;;;;;;;;;;;;4983599;28;20405;-74
2024/03/15 08:19:00;;;;;;;;;;;;;;;;;;4965207;28;19944;-74
2024/03/15 08:21:27;;;;;;;;;;;;;;;;;;4972377;28;19965;-74
2024/03/15 08:23:54;;;;;;;;;;;;;;;;;;4980832;28;19973;-74
2024/03/15 08:26:21;;;;;;;;;;;;;;;;;;4968618;28;19931;-74
2024/03/15 08:28:50;;;;;;;;;;;;;;;;;;4967745;28;20829;-74
2024/03/15 08:31:17;;;;;;;;;;;;;;;;;;4959324;28;19934;-74
2024/03/15 08:33:45;;;;;;;;;;;;;;;;;;4966871;28;21492;-74
2024/03/15 08:36:13;;;;;;;;;;;;;;;;;;4963104;28;19930;-74
2024/03/15 08:38:40;;;;;;;;;;;;;;;;;;4968204;28;21612;-73
2024/03/15 08:41:07;;;;;;;;;;;;;;;;;;4960439;28;19934;-74
2024/03/15 08:43:36;;;;;;;;;;;;;;;;;;4953452;28;19984;-74
2024/03/15 08:46:05;;;;;;;;;;;;;;;;;;4965368;28;19930;-74
2024/03/15 08:48:32;;;;;;;;;;;;;;;;;;4959178;28;20514;-75
2024/03/15 08:50:59;;;;;;;;;;;;;;;;;;4963859;28;19977;-74
2024/03/15 08:53:26;;;;;;;;;;;;;;;;;;4965746;28;20462;-73
2024/03/15 08:55:53;;;;;;;;;;;;;;;;;;4964202;28;20393;-74
2024/03/15 08:58:20;;;;;;;;;;;;;;;;;;4967286;28;19976;-73
2024/03/15 09:00:48;;;;;;;;;;;;;;;;;;4972758;28;19960;-74
2024/03/15 09:03:15;;;;;;;;;;;;;;;;;;4963074;28;19934;-73
2024/03/15 09:05:43;;;;;;;;;;;;;;;;;;4961493;28;19930;-73
2024/03/15 09:08:11;;;;;;;;;;;;;;;;;;4964487;28;19937;-73
2024/03/15 09:10:38;;;;;;;;;;;;;;;;;;4965749;28;20248;-73
2024/03/15 09:13:05;;;;;;;;;;;;;;;;;;4963140;28;20003;-73
2024/03/15 09:15:33;;;;;;;;;;;;;;;;;;4950886;28;19974;-73
2024/03/15 09:18:00;;;;;;;;;;;;;;;;;;4957247;28;19934;-73
2024/03/15 09:20:35;;;;;;;;;;;;;;;;;;4965678;28;20452;-72
2024/03/15 09:23:03;;;;;;;;;;;;;;;;;;4967135;28;19934;-71
2024/03/15 09:25:30;;;;;;;;;;;;;;;;;;4947517;28;20029;-72
2024/03/15 09:27:57;;;;;;;;;;;;;;;;;;4957024;28;19952;-74
2024/03/15 09:30:27;;;;;;;;;;;;;;;;;;4962652;28;19940;-73
2024/03/15 09:32:54;;;;;;;;;;;;;;;;;;4959946;28;20131;-73
2024/03/15 09:35:21;;;;;;;;;;;;;;;;;;4963074;28;20048;-71
2024/03/15 09:37:50;;;;;;;;;;;;;;;;;;4953416;28;19931;-73
2024/03/15 09:40:17;;;;;;;;;;;;;;;;;;4961805;28;19930;-72
2024/03/15 09:42:44;;;;;;;;;;;;;;;;;;4959759;28;19975;-72
2024/03/15 09:45:11;;;;;;;;;;;;;;;;;;4961489;28;20013;-72
2024/03/15 09:47:38;;;;;;;;;;;;;;;;;;4960888;28;20401;-73
2024/03/15 09:50:05;;;;;;;;;;;;;;;;;;4964374;28;19974;-73
2024/03/15 09:52:33;;;;;;;;;;;;;;;;;;4963515;28;20010;-71
2024/03/15 09:55:00;;;;;;;;;;;;;;;;;;4960043;28;19934;-72
2024/03/15 09:57:28;;;;;;;;;;;;;;;;;;4950190;28;19931;-72
2024/03/15 09:59:55;;;;;;;;;;;;;;;;;;4961874;28;19930;-73
2024/03/15 10:02:23;;;;;;;;;;;;;;;;;;4956048;28;19978;-74
2024/03/15 10:04:50;;;;;;;;;;;;;;;;;;4953774;28;20728;-73
2024/03/15 10:07:17;;;;;;;;;;;;;;;;;;4963103;28;19930;-74
2024/03/15 10:09:44;;;;;;;;;;;;;;;;;;4956972;28;20369;-75
2024/03/15 10:12:11;;;;;;;;;;;;;;;;;;4973015;28;19978;-74
2024/03/15 10:14:38;;;;;;;;;;;;;;;;;;4961979;28;20021;-74
2024/03/15 10:17:05;;;;;;;;;;;;;;;;;;4960142;28;19931;-75
2024/03/15 10:19:33;;;;;;;;;;;;;;;;;;4950448;28;19937;-75
2024/03/15 10:22:00;;;;;;;;;;;;;;;;;;4971765;28;19956;-75
2024/03/15 10:24:28;;;;;;;;;;;;;;;;;;4970740;28;19937;-74
2024/03/15 10:26:55;;;;;;;;;;;;;;;;;;4963981;28;19937;-73
2024/03/15 10:29:22;;;;;;;;;;;;;;;;;;4978818;28;19969;-74
2024/03/15 10:31:50;;;;;;;;;;;;;;;;;;4981036;28;19969;-74
2024/03/15 10:34:17;;;;;;;;;;;;;;;;;;4967936;28;19985;-73
2024/03/15 10:36:44;;;;;;;;;;;;;;;;;;4969120;28;19930;-73
2024/03/15 10:39:13;;;;;;;;;;;;;;;;;;4954542;28;20043;-73
2024/03/15 10:41:40;;;;;;;;;;;;;;;;;;4966627;28;19934;-73
2024/03/15 10:44:07;;;;;;;;;;;;;;;;;;4964980;28;20562;-73
2024/03/15 10:46:34;;;;;;;;;;;;;;;;;;4997423;28;19930;-74
2024/03/15 10:49:02;;;;;;;;;;;;;;;;;;4964590;28;19980;-73
2024/03/15 10:51:29;;;;;;;;;;;;;;;;;;4964387;28;20546;-74
2024/03/15 10:53:57;;;;;;;;;;;;;;;;;;4956721;28;20067;-74
2024/03/15 10:56:24;;;;;;;;;;;;;;;;;;4965523;28;19931;-73
2024/03/15 10:58:51;;;;;;;;;;;;;;;;;;4963998;28;20101;-73
2024/03/15 11:01:21;;;;;;;;;;;;;;;;;;4957606;28;20355;-72
2024/03/15 11:03:48;;;;;;;;;;;;;;;;;;4968658;28;20929;-72
2024/03/15 11:06:15;;;;;;;;;;;;;;;;;;4969398;28;20397;-74
2024/03/15 11:08:43;;;;;;;;;;;;;;;;;;4964579;28;19930;-73
2024/03/15 11:11:10;;;;;;;;;;;;;;;;;;4960690;28;19930;-73
2024/03/15 11:13:37;;;;;;;;;;;;;;;;;;4956312;28;19931;-72
2024/03/15 11:16:04;;;;;;;;;;;;;;;;;;4965793;28;19937;-73
2024/03/15 11:18:31;;;;;;;;;;;;;;;;;;4983591;28;19961;-74
2024/03/15 11:20:59;;;;;;;;;;;;;;;;;;4976953;28;20311;-73
2024/03/15 11:23:26;;;;;;;;;;;;;;;;;;4959932;28;19995;-73
2024/03/15 11:25:53;;;;;;;;;;;;;;;;;;4993311;28;19932;-73
2024/03/15 11:28:21;;;;;;;;;;;;;;;;;;4973487;28;19930;-73
2024/03/15 11:30:48;;;;;;;;;;;;;;;;;;4969555;28;20021;-70
2024/03/15 11:33:15;;;;;;;;;;;;;;;;;;4969625;28;19930;-72
2024/03/15 11:35:44;;;;;;;;;;;;;;;;;;5041907;28;19959;-73
2024/03/15 11:38:11;;;;;;;;;;;;;;;;;;5022030;28;19934;-73
2024/03/15 11:40:38;;;;;;;;;;;;;;;;;;4958192;28;19984;-73
2024/03/15 11:43:05;;;;;;;;;;;;;;;;;;4961483;28;20436;-74
2024/03/15 11:45:33;;;;;;;;;;;;;;;;;;4969986;28;19996;-72
2024/03/15 11:48:00;;;;;;;;;;;;;;;;;;4979008;28;19980;-73
2024/03/15 11:50:27;;;;;;;;;;;;;;;;;;4950214;28;19977;-73
2024/03/15 11:52:54;;;;;;;;;;;;;;;;;;4957167;28;19930;-72
2024/03/15 11:55:21;;;;;;;;;;;;;;;;;;4965653;28;19935;-73
2024/03/15 11:57:48;;;;;;;;;;;;;;;;;;4968000;28;19930;-73
2024/03/15 12:00:20;;;;;;;;;;;;;;;;;;4966236;28;20232;-73
2024/03/15 12:02:47;;;;;;;;;;;;;;;;;;4959489;28;19930;-73
2024/03/15 12:05:15;;;;;;;;;;;;;;;;;;4951382;28;20411;-73
2024/03/15 12:07:42;;;;;;;;;;;;;;;;;;4953160;28;19934;-72
2024/03/15 12:10:09;;;;;;;;;;;;;;;;;;4961677;28;20406;-70
2024/03/15 12:12:36;;;;;;;;;;;;;;;;;;4960195;28;20317;-73
2024/03/15 12:15:03;;;;;;;;;;;;;;;;;;4951406;28;19966;-73
2024/03/15 12:17:30;;;;;;;;;;;;;;;;;;4953990;28;20393;-73
2024/03/15 12:19:57;;;;;;;;;;;;;;;;;;4958670;28;19934;-72
2024/03/15 12:22:25;;;;;;;;;;;;;;;;;;4965646;28;19941;-72
2024/03/15 12:24:52;;;;;;;;;;;;;;;;;;4955117;28;19973;-73
2024/03/15 12:27:19;;;;;;;;;;;;;;;;;;4979610;28;19936;-72
2024/03/15 12:29:46;;;;;;;;;;;;;;;;;;4961060;28;20298;-73
2024/03/15 12:32:13;;;;;;;;;;;;;;;;;;4956746;28;19941;-71
2024/03/15 12:34:41;;;;;;;;;;;;;;;;;;4953422;28;19934;-72
2024/03/15 12:37:08;;;;;;;;;;;;;;;;;;4954756;28;20467;-73
2024/03/15 12:39:35;;;;;;;;;;;;;;;;;;4957034;28;19936;-73
2024/03/15 12:42:03;;;;;;;;;;;;;;;;;;4956413;28;20025;-72
2024/03/15 12:44:31;;;;;;;;;;;;;;;;;;4949703;28;19930;-72
2024/03/15 12:46:58;;;;;;;;;;;;;;;;;;4956963;28;19930;-72
2024/03/15 12:49:25;;;;;;;;;;;;;;;;;;4956300;28;19930;-72
2024/03/15 12:51:52;;;;;;;;;;;;;;;;;;4951162;28;20031;-72
2024/03/15 12:54:19;;;;;;;;;;;;;;;;;;4968415;28;19934;-72
2024/03/15 12:56:46;;;;;;;;;;;;;;;;;;4966625;28;19930;-72
2024/03/15 12:59:14;;;;;;;;;;;;;;;;;;4961366;28;19936;-72
2024/03/15 13:01:41;;;;;;;;;;;;;;;;;;4949762;28;19935;-72
2024/03/15 13:04:08;;;;;;;;;;;;;;;;;;4951307;28;19930;-72
2024/03/15 13:06:35;;;;;;;;;;;;;;;;;;4957971;28;20347;-73
2024/03/15 13:09:02;;;;;;;;;;;;;;;;;;4961166;28;19978;-73
2024/03/15 13:11:29;;;;;;;;;;;;;;;;;;4957195;28;20343;-73
2024/03/15 13:13:56;;;;;;;;;;;;;;;;;;4959541;28;20344;-73
2024/03/15 13:16:23;;;;;;;;;;;;;;;;;;4968587;28;20403;-72
2024/03/15 13:18:50;;;;;;;;;;;;;;;;;;4970876;28;19934;-73
2024/03/15 13:21:17;;;;;;;;;;;;;;;;;;4956257;28;19984;-75
2024/03/15 13:23:44;;;;;;;;;;;;;;;;;;4960723;28;19930;-74
2024/03/15 13:26:11;;;;;;;;;;;;;;;;;;4962423;28;19934;-73
2024/03/15 13:28:39;;;;;;;;;;;;;;;;;;4973496;28;19930;-74
2024/03/15 13:31:06;;;;;;;;;;;;;;;;;;4966969;28;19962;-73
2024/03/15 13:33:38;;;;;;;;;;;;;;;;;;4966849;28;19976;-74
2024/03/15 13:36:08;;;;;;;;;;;;;;;;;;4970328;28;19959;-74
2024/03/15 13:38:36;;;;;;;;;;;;;;;;;;4969569;28;19930;-75
2024/03/15 13:41:03;;;;;;;;;;;;;;;;;;4968944;28;20385;-74
2024/03/15 13:43:30;;;;;;;;;;;;;;;;;;4994124;28;20458;-74
2024/03/15 13:45:57;;;;;;;;;;;;;;;;;;4964252;28;20468;-74
2024/03/15 13:48:25;;;;;;;;;;;;;;;;;;4978499;28;19934;-74
2024/03/15 13:50:52;;;;;;;;;;;;;;;;;;4969840;28;19949;-75
2024/03/15 13:53:19;;;;;;;;;;;;;;;;;;4983095;28;19931;-74
2024/03/15 13:55:47;;;;;;;;;;;;;;;;;;4958659;28;19970;-74
2024/03/15 13:58:15;;;;;;;;;;;;;;;;;;4965950;28;20013;-73
2024/03/15 14:00:42;;;;;;;;;;;;;;;;;;4968354;28;20017;-74
2024/03/15 14:03:10;;;;;;;;;;;;;;;;;;4965881;28;19930;-73
2024/03/15 14:05:37;;;;;;;;;;;;;;;;;;4956273;28;19930;-74
2024/03/15 14:08:05;;;;;;;;;;;;;;;;;;4956569;28;19930;-77
2024/03/15 14:10:32;;;;;;;;;;;;;;;;;;4963747;28;19934;-77
2024/03/15 14:13:00;;;;;;;;;;;;;;;;;;4964240;28;19930;-77
2024/03/15 14:15:27;;;;;;;;;;;;;;;;;;4969134;28;19984;-78
2024/03/15 14:17:54;;;;;;;;;;;;;;;;;;4963962;28;20025;-78
2024/03/15 14:20:21;;;;;;;;;;;;;;;;;;4969386;28;20378;-78
2024/03/15 14:22:49;;;;;;;;;;;;;;;;;;4956899;28;19937;-78
2024/03/15 14:25:16;;;;;;;;;;;;;;;;;;4978975;28;19949;-70
2024/03/15 14:27:45;;;;;;;;;;;;;;;;;;4966893;28;19930;-71
2024/03/15 14:30:12;;;;;;;;;;;;;;;;;;4968643;28;19949;-70
2024/03/15 14:32:39;;;;;;;;;;;;;;;;;;4955401;28;19974;-71
2024/03/15 14:35:08;;;;;;;;;;;;;;;;;;4952886;28;19971;-71
2024/03/15 14:37:35;;;;;;;;;;;;;;;;;;4955919;28;19965;-69
2024/03/15 14:40:08;;;;;;;;;;;;;;;;;;4957647;28;19934;-71
2024/03/15 14:42:35;;;;;;;;;;;;;;;;;;4958016;28;19987;-75
2024/03/15 14:45:02;;;;;;;;;;;;;;;;;;4953916;28;19958;-74
2024/03/15 14:47:29;;;;;;;;;;;;;;;;;;4962031;28;20374;-75
2024/03/15 14:49:56;;;;;;;;;;;;;;;;;;4967953;28;19930;-75
2024/03/15 14:52:23;;;;;;;;;;;;;;;;;;4984371;28;19933;-72
2024/03/15 14:54:52;;;;;;;;;;;;;;;;;;4955062;28;19941;-73
2024/03/15 14:57:19;;;;;;;;;;;;;;;;;;4956807;28;19930;-74
2024/03/15 14:59:46;;;;;;;;;;;;;;;;;;4960200;28;19930;-74
2024/03/15 15:02:14;;;;;;;;;;;;;;;;;;4957172;28;19937;-74
2024/03/15 15:04:41;;;;;;;;;;;;;;;;;;4954782;28;19953;-73
2024/03/15 15:07:09;;;;;;;;;;;;;;;;;;4972088;28;19935;-70
2024/03/15 15:09:37;;;;;;;;;;;;;;;;;;4969437;28;19964;-72
2024/03/15 15:12:04;;;;;;;;;;;;;;;;;;4966168;28;19969;-72
2024/03/15 15:14:31;;;;;;;;;;;;;;;;;;4959660;28;19935;-73
2024/03/15 15:16:58;;;;;;;;;;;;;;;;;;4950022;28;19992;-72
2024/03/15 15:19:28;;;;;;;;;;;;;;;;;;4949301;28;19931;-72
2024/03/15 15:21:55;;;;;;;;;;;;;;;;;;4963500;28;20033;-72
2024/03/15 15:24:22;;;;;;;;;;;;;;;;;;4958933;28;19934;-72
2024/03/15 15:26:51;;;;;;;;;;;;;;;;;;4968547;28;20374;-72
2024/03/15 15:29:18;;;;;;;;;;;;;;;;;;4965991;28;19936;-71
2024/03/15 15:31:45;;;;;;;;;;;;;;;;;;4964987;28;19930;-70
2024/03/15 15:34:13;;;;;;;;;;;;;;;;;;4965401;28;20017;-69
2024/03/15 15:36:40;;;;;;;;;;;;;;;;;;4964665;28;19930;-71
2024/03/15 15:39:10;;;;;;;;;;;;;;;;;;4965265;28;19980;-74
2024/03/15 15:41:37;;;;;;;;;;;;;;;;;;4958341;28;19934;-72
2024/03/15 15:44:05;;;;;;;;;;;;;;;;;;4961961;28;19934;-72
2024/03/15 15:46:32;;;;;;;;;;;;;;;;;;4963865;28;20324;-72
2024/03/15 15:48:59;;;;;;;;;;;;;;;;;;4974507;28;19930;-72
2024/03/15 15:51:28;;;;;;;;;;;;;;;;;;4964612;28;20399;-72
2024/03/15 15:53:55;;;;;;;;;;;;;;;;;;4965536;28;19933;-72
2024/03/15 15:56:22;;;;;;;;;;;;;;;;;;4964753;28;19988;-72
2024/03/15 15:58:49;;;;;;;;;;;;;;;;;;4966319;28;20022;-72
2024/03/15 16:01:17;;;;;;;;;;;;;;;;;;4964561;28;21216;-72
2024/03/15 16:03:44;;;;;;;;;;;;;;;;;;4963712;28;19957;-72
2024/03/15 16:06:11;;;;;;;;;;;;;;;;;;4964596;28;19981;-73
2024/03/15 16:08:38;;;;;;;;;;;;;;;;;;4965093;28;19938;-72
2024/03/15 16:11:05;;;;;;;;;;;;;;;;;;4965366;28;20904;-72
2024/03/15 16:13:32;;;;;;;;;;;;;;;;;;4962413;28;19938;-72
2024/03/15 16:15:59;;;;;;;;;;;;;;;;;;4963246;28;19970;-73
2024/03/15 16:18:27;;;;;;;;;;;;;;;;;;4966711;28;19938;-74
2024/03/15 16:20:54;;;;;;;;;;;;;;;;;;4963846;28;19930;-74
2024/03/15 16:23:22;;;;;;;;;;;;;;;;;;4963237;28;19930;-74
2024/03/15 16:25:49;;;;;;;;;;;;;;;;;;4948967;28;19942;-73
2024/03/15 16:28:16;;;;;;;;;;;;;;;;;;4955784;28;19999;-72
2024/03/15 16:30:43;;;;;;;;;;;;;;;;;;4965366;28;19976;-72
2024/03/15 16:33:11;;;;;;;;;;;;;;;;;;4968731;28;19934;-71
2024/03/15 16:35:38;;;;;;;;;;;;;;;;;;4968267;28;20019;-72
2024/03/15 16:38:05;;;;;;;;;;;;;;;;;;4968259;28;19930;-72
2024/03/15 16:40:32;;;;;;;;;;;;;;;;;;4967308;28;20438;-72
2024/03/15 16:42:59;;;;;;;;;;;;;;;;;;4963044;28;19936;-72
2024/03/15 16:45:26;;;;;;;;;;;;;;;;;;4961118;28;19997;-72
2024/03/15 16:47:54;;;;;;;;;;;;;;;;;;4966982;28;19930;-72
2024/03/15 16:50:23;;;;;;;;;;;;;;;;;;4965594;28;20035;-74
2024/03/15 16:52:50;;;;;;;;;;;;;;;;;;4967168;28;20425;-73
2024/03/15 16:55:18;;;;;;;;;;;;;;;;;;4966318;28;19998;-74
2024/03/15 16:57:46;;;;;;;;;;;;;;;;;;4966751;28;19930;-73
2024/03/15 17:00:16;;;;;;;;;;;;;;;;;;4959398;28;19938;-73